Jackson Evers International Airport
KJAN : now visible

Airfield :











YOU CAN JOIN US ON...

 
LOGIN :

Register | Disclaimer

   EN    FR    IT 

 









Legend :    VFR   Marginal VFR   IFR   Intensive IFR   Very Intensive IFR
Visi :
Ceiling :
>= 8 km
>= 3000ft
5 to 8 km
1000 to 3000 ft
1500m to 5 km
500 to 1000 ft
800 to 1500m
200 to 500 ft
< 800m
< 200 ft
Symbols :   Thunderstorms  Fog  Heavy snow  Heavy precipitations  Wind > 20 kt






- Airport Elevation : 346 ft
- IATA code : JAN


KJAN - Jackson Evers International

CURRENT METAR :
  • 270154Z 06004KT 10SM OVC065 16/09 A2995 RMK AO2 SLP139 T01610089

EXPIRED METARs :
  • 270054Z 10003KT 10SM OVC065 16/09 A2993 RMK AO2 SLP135 T01610089
  • 262354Z 05004KT 10SM OVC070 17/08 A2992 RMK AO2 SLP131 T01720078 10211 20156 50001

TAF KJAN
Valid from the 27 at 00:00 until the 28 at 00:00 UTC


262329Z 2700/2724 03003KT P6SM OVC070
FM270900 04004KT P6SM -RA OVC025
FM271200 03005KT P6SM -RA OVC015
FM271500 33010G16KT P6SM OVC015
FM272100 32017G24KT P6SM BKN025
KZME FIR / North America



MET'MAP, your aeronautical weather chart ! - Copyright ORBIFLY December 2007 - Disclaimer

ORBIFLY MET'MAP TEAM :

Programming & Development : Alexandra Zaïnal
Concept & original design : Baudouin d'Aumeries
Assistance for programming : Marc-Olivier Méhu
Technical & hardware support : Manuel Goepfert

Contact : metmap@orbifly.com




SOURCES & CREDITS :

   NOAA       Earth
Advisory